createdAt,value
2023-01-25T00:00:31.080Z,18.75
2023-01-25T00:02:58.031Z,19.80
2023-01-25T00:05:25.032Z,18.95
2023-01-25T00:07:51.875Z,18.73
2023-01-25T00:10:19.014Z,18.75
2023-01-25T00:12:45.802Z,18.38
2023-01-25T00:15:12.629Z,17.85
2023-01-25T00:17:39.380Z,19.25
2023-01-25T00:20:07.120Z,17.63
2023-01-25T00:22:33.926Z,18.83
2023-01-25T00:25:00.667Z,15.88
2023-01-25T00:27:27.446Z,20.02
2023-01-25T00:29:54.271Z,17.83
2023-01-25T00:32:21.158Z,17.85
2023-01-25T00:34:54.668Z,16.50
2023-01-25T00:37:25.571Z,18.23
2023-01-25T00:39:52.735Z,17.25
2023-01-25T00:42:20.348Z,17.65
2023-01-25T00:44:48.335Z,17.00
2023-01-25T00:47:16.145Z,17.30
2023-01-25T00:49:44.469Z,16.85
2023-01-25T00:52:11.430Z,17.02
2023-01-25T00:54:38.636Z,15.98
2023-01-25T00:57:07.085Z,16.83
2023-01-25T00:59:37.031Z,16.38
2023-01-25T01:02:04.285Z,18.05
2023-01-25T01:04:31.457Z,16.95
2023-01-25T01:06:58.283Z,15.43
2023-01-25T01:09:25.248Z,15.80
2023-01-25T01:11:52.358Z,16.58
2023-01-25T01:14:20.403Z,15.40
2023-01-25T01:16:47.721Z,15.43
2023-01-25T01:19:14.725Z,16.90
2023-01-25T01:21:41.993Z,16.73
2023-01-25T01:24:10.310Z,16.50
2023-01-25T01:26:37.244Z,17.35
2023-01-25T01:29:04.677Z,14.93
2023-01-25T01:31:34.785Z,16.27
2023-01-25T01:34:02.010Z,17.15
2023-01-25T01:36:30.421Z,17.38
2023-01-25T01:38:59.562Z,16.73
2023-01-25T01:41:26.767Z,16.13
2023-01-25T01:43:54.712Z,16.92
2023-01-25T01:46:34.485Z,18.98
2023-01-25T01:49:02.926Z,17.20
2023-01-25T01:51:41.739Z,18.02
2023-01-25T01:54:27.511Z,17.88
2023-01-25T01:57:18.099Z,18.20
2023-01-25T01:59:50.645Z,17.60
2023-01-25T02:02:17.611Z,19.05
2023-01-25T02:04:47.166Z,17.75
2023-01-25T02:07:13.873Z,17.15
2023-01-25T02:09:41.379Z,15.65
2023-01-25T02:12:09.569Z,16.13
2023-01-25T02:14:39.617Z,15.00
2023-01-25T02:17:06.410Z,16.63
2023-01-25T02:19:58.711Z,14.82
2023-01-25T02:22:44.820Z,15.77
2023-01-25T02:25:13.303Z,15.43
2023-01-25T02:27:53.205Z,13.43
2023-01-25T02:30:20.164Z,13.55
2023-01-25T02:32:46.900Z,13.88
2023-01-25T02:35:21.939Z,12.70
2023-01-25T02:37:50.334Z,12.93
2023-01-25T02:40:22.902Z,14.27
2023-01-25T02:42:49.653Z,13.90
2023-01-25T02:45:19.584Z,15.27
2023-01-25T02:47:46.534Z,16.98
2023-01-25T02:50:15.109Z,14.60
2023-01-25T02:52:42.705Z,18.15
2023-01-25T02:55:10.028Z,13.60
2023-01-25T02:57:36.987Z,19.50
2023-01-25T03:00:05.800Z,17.17
2023-01-25T03:02:32.782Z,16.33
2023-01-25T03:04:59.584Z,17.77
2023-01-25T03:07:26.365Z,18.77
2023-01-25T03:09:53.134Z,18.02
2023-01-25T03:12:19.861Z,16.40
2023-01-25T03:14:46.607Z,18.70
2023-01-25T03:17:13.364Z,15.55
2023-01-25T03:19:40.153Z,17.25
2023-01-25T03:22:07.715Z,16.70
2023-01-25T03:24:34.537Z,16.30
2023-01-25T03:27:14.303Z,15.93
2023-01-25T03:29:41.826Z,16.58
2023-01-25T03:32:09.305Z,18.08
2023-01-25T03:34:36.572Z,18.65
2023-01-25T03:37:03.752Z,18.40
2023-01-25T03:39:33.573Z,18.73
2023-01-25T03:42:00.308Z,15.95
2023-01-25T03:44:27.217Z,19.38
2023-01-25T03:46:53.976Z,17.73
2023-01-25T03:49:20.822Z,17.33
2023-01-25T03:51:47.608Z,18.00
2023-01-25T03:54:14.373Z,16.15
2023-01-25T03:56:41.117Z,15.20
2023-01-25T03:59:08.124Z,16.63
2023-01-25T04:01:35.038Z,16.13
2023-01-25T04:04:01.825Z,14.57
2023-01-25T04:06:28.650Z,15.82
2023-01-25T04:08:55.458Z,16.98
2023-01-25T04:11:22.242Z,15.70
2023-01-25T04:13:49.038Z,14.35
2023-01-25T04:16:15.851Z,13.68
2023-01-25T04:18:42.675Z,14.52
2023-01-25T04:21:09.459Z,15.02
2023-01-25T04:23:36.198Z,15.90
2023-01-25T04:26:05.853Z,14.13
2023-01-25T04:28:33.796Z,15.38
2023-01-25T04:31:01.423Z,14.18
2023-01-25T04:33:28.192Z,14.18
2023-01-25T04:35:54.981Z,14.48
2023-01-25T04:38:21.901Z,13.55
2023-01-25T04:40:48.658Z,13.93
2023-01-25T04:43:19.265Z,13.70
2023-01-25T04:45:46.759Z,14.80
2023-01-25T04:48:14.437Z,12.75
2023-01-25T04:50:42.485Z,13.73
2023-01-25T04:53:10.865Z,13.05
2023-01-25T04:55:37.621Z,14.90
2023-01-25T04:58:05.010Z,12.40
2023-01-25T05:00:33.187Z,14.57
2023-01-25T05:03:00.024Z,13.77
2023-01-25T05:05:26.804Z,15.15
2023-01-25T05:07:53.565Z,13.98
2023-01-25T05:10:20.447Z,12.10
2023-01-25T05:12:47.269Z,12.85
2023-01-25T05:15:14.328Z,13.60
2023-01-25T05:17:41.113Z,12.23
2023-01-25T05:20:08.782Z,13.80
2023-01-25T05:22:35.554Z,13.77
2023-01-25T05:25:03.808Z,12.95
2023-01-25T05:27:30.542Z,12.23
2023-01-25T05:29:57.759Z,12.55
2023-01-25T05:32:24.897Z,12.98
2023-01-25T05:34:51.772Z,12.50
2023-01-25T05:37:20.766Z,12.85
2023-01-25T05:39:47.787Z,14.93
2023-01-25T05:42:17.665Z,13.30
2023-01-25T05:44:47.369Z,12.27
2023-01-25T05:47:16.596Z,12.50
2023-01-25T05:49:43.549Z,11.75
2023-01-25T05:52:17.551Z,14.50
2023-01-25T05:54:44.490Z,13.30
2023-01-25T05:57:11.283Z,12.70
2023-01-25T05:59:38.042Z,12.52
2023-01-25T06:02:04.776Z,11.60
2023-01-25T06:04:31.724Z,11.93
2023-01-25T06:06:58.621Z,11.60
2023-01-25T06:09:26.439Z,11.68
2023-01-25T06:11:53.207Z,13.05
2023-01-25T06:14:20.036Z,11.88
2023-01-25T06:16:46.755Z,12.02
2023-01-25T06:19:14.276Z,12.25
2023-01-25T06:21:41.040Z,10.73
2023-01-25T06:24:08.147Z,12.35
2023-01-25T06:26:34.918Z,10.38
2023-01-25T06:29:01.650Z,12.15
2023-01-25T06:31:28.482Z,13.32
2023-01-25T06:33:55.336Z,11.20
2023-01-25T06:36:22.987Z,11.25
2023-01-25T06:38:51.085Z,11.60
2023-01-25T06:41:18.424Z,11.15
2023-01-25T06:43:45.629Z,12.13
2023-01-25T06:46:12.737Z,12.40
2023-01-25T06:48:41.084Z,11.15
2023-01-25T06:51:10.453Z,10.27
2023-01-25T06:53:40.541Z,10.85
2023-01-25T06:56:20.718Z,11.45
2023-01-25T06:58:48.549Z,10.80
2023-01-25T07:01:21.295Z,11.57
2023-01-25T07:03:52.873Z,10.88
2023-01-25T07:06:20.932Z,11.20
2023-01-25T07:08:48.213Z,10.73
2023-01-25T07:11:16.010Z,11.95
2023-01-25T07:13:45.836Z,13.07
2023-01-25T07:16:17.810Z,11.57
2023-01-25T07:18:44.716Z,12.48
2023-01-25T07:21:16.976Z,12.35
2023-01-25T07:26:21.790Z,11.60
2023-01-25T07:28:49.282Z,11.65
2023-01-25T07:31:17.500Z,12.82
2023-01-25T07:33:47.411Z,13.00
2023-01-25T07:36:14.284Z,13.15
2023-01-25T07:38:41.181Z,14.82
2023-01-25T07:41:08.037Z,17.88
2023-01-25T07:43:34.873Z,15.15
2023-01-25T07:46:03.797Z,13.85
2023-01-25T07:48:30.873Z,13.70
2023-01-25T07:51:22.775Z,13.43
2023-01-25T07:53:52.152Z,12.80
2023-01-25T07:56:20.118Z,13.20
2023-01-25T07:58:47.698Z,12.32
2023-01-25T08:01:17.549Z,11.15
2023-01-25T08:03:44.934Z,14.40
2023-01-25T08:06:12.206Z,13.60
2023-01-25T08:08:45.646Z,14.43
2023-01-25T08:11:18.693Z,12.38
2023-01-25T08:13:49.763Z,14.13
2023-01-25T08:16:18.606Z,17.23
2023-01-25T08:18:57.682Z,17.38
2023-01-25T08:21:29.961Z,14.93
2023-01-25T08:24:02.287Z,14.43
2023-01-25T08:26:29.288Z,14.73
2023-01-25T08:28:56.455Z,15.05
2023-01-25T08:31:28.362Z,15.23
2023-01-25T08:33:56.006Z,14.18
2023-01-25T08:36:27.980Z,15.93
2023-01-25T08:41:23.209Z,15.32
2023-01-25T08:43:52.547Z,15.35
2023-01-25T08:46:19.915Z,14.68
2023-01-25T08:48:46.772Z,15.32
2023-01-25T08:51:15.978Z,13.52
2023-01-25T08:53:43.213Z,18.05
2023-01-25T08:56:12.430Z,16.48
2023-01-25T08:58:41.771Z,15.52
2023-01-25T09:01:11.047Z,15.25
2023-01-25T09:03:45.864Z,15.57
2023-01-25T09:06:13.097Z,14.77
2023-01-25T09:08:40.228Z,15.85
2023-01-25T09:11:09.575Z,15.15
2023-01-25T09:13:36.476Z,13.35
2023-01-25T09:16:09.948Z,13.77
2023-01-25T09:18:38.121Z,15.57
2023-01-25T09:23:51.210Z,15.05
2023-01-25T09:26:31.524Z,15.80
2023-01-25T09:28:59.363Z,13.75
2023-01-25T09:31:28.285Z,14.05
2023-01-25T09:33:56.903Z,14.55
2023-01-25T09:36:23.808Z,14.45
2023-01-25T09:38:50.596Z,14.60
2023-01-25T09:41:50.455Z,13.23
2023-01-25T09:44:33.397Z,14.50
2023-01-25T09:47:05.043Z,14.82
2023-01-25T09:49:50.642Z,11.88
2023-01-25T09:52:32.176Z,12.35
2023-01-25T09:54:59.077Z,13.10
2023-01-25T09:57:34.518Z,15.80
2023-01-25T10:00:10.658Z,12.30
2023-01-25T10:02:52.112Z,13.05
2023-01-25T10:05:31.154Z,12.60
2023-01-25T10:08:06.955Z,12.23
2023-01-25T10:10:38.743Z,12.18
2023-01-25T10:13:11.524Z,12.88
2023-01-25T10:15:48.133Z,13.60
2023-01-25T10:18:39.753Z,11.95
2023-01-25T10:21:10.897Z,14.43
2023-01-25T10:24:15.271Z,13.15
2023-01-25T10:26:44.904Z,12.85
2023-01-25T10:29:22.918Z,12.75
2023-01-25T10:31:54.834Z,13.27
2023-01-25T10:34:44.066Z,12.60
2023-01-25T10:37:31.086Z,13.20
2023-01-25T10:40:13.782Z,13.32
2023-01-25T10:42:45.301Z,12.60
2023-01-25T10:45:16.646Z,13.48
2023-01-25T10:47:48.460Z,12.70
2023-01-25T10:50:47.464Z,13.20
2023-01-25T10:53:27.585Z,12.98
2023-01-25T10:56:09.302Z,15.02
2023-01-25T10:58:46.096Z,13.48
2023-01-25T11:01:28.608Z,13.85
2023-01-25T11:03:55.877Z,14.40
2023-01-25T11:06:29.756Z,13.15
2023-01-25T11:08:56.546Z,14.18
2023-01-25T11:11:30.385Z,12.80
2023-01-25T11:13:57.503Z,14.75
2023-01-25T11:16:47.199Z,14.00
2023-01-25T11:19:32.626Z,12.80
2023-01-25T11:22:00.764Z,12.85
2023-01-25T11:24:35.988Z,14.20
2023-01-25T11:27:27.191Z,11.82
2023-01-25T11:30:09.942Z,13.82
2023-01-25T11:32:40.263Z,14.05
2023-01-25T11:35:16.247Z,14.20
2023-01-25T11:37:58.766Z,15.85
2023-01-25T11:40:43.277Z,14.88
2023-01-25T11:43:47.070Z,18.23
2023-01-25T11:46:26.015Z,17.65
2023-01-25T11:49:10.744Z,16.35
2023-01-25T11:52:06.801Z,14.10
2023-01-25T11:55:05.462Z,14.85
2023-01-25T11:57:37.701Z,16.50
2023-01-25T12:03:17.055Z,14.98
2023-01-25T12:06:16.785Z,15.20
2023-01-25T12:08:49.413Z,16.48
2023-01-25T12:11:39.774Z,15.20
2023-01-25T12:14:34.236Z,16.65
2023-01-25T12:17:26.587Z,17.50
2023-01-25T12:20:18.974Z,15.80
2023-01-25T12:23:07.416Z,15.98
2023-01-25T12:25:42.590Z,15.70
2023-01-25T12:28:19.863Z,15.82
2023-01-25T12:31:10.908Z,19.02
2023-01-25T12:33:47.707Z,18.45
2023-01-25T12:36:21.781Z,17.20
2023-01-25T12:39:05.088Z,18.10
2023-01-25T12:41:54.166Z,15.95
2023-01-25T12:44:23.704Z,14.80
2023-01-25T12:47:15.601Z,15.73
2023-01-25T12:49:53.858Z,11.95
2023-01-25T12:52:32.148Z,17.60
2023-01-25T12:55:05.493Z,15.00
2023-01-25T12:57:47.177Z,16.15
2023-01-25T13:00:22.225Z,14.18
2023-01-25T13:03:06.958Z,17.33
2023-01-25T13:06:09.663Z,16.15
2023-01-25T13:11:44.745Z,16.90
2023-01-25T13:14:20.545Z,18.10
2023-01-25T13:16:50.288Z,18.40
2023-01-25T13:19:30.362Z,16.30
2023-01-25T13:21:58.518Z,16.50
2023-01-25T13:24:27.771Z,14.68
2023-01-25T13:26:54.495Z,14.95
2023-01-25T13:29:36.007Z,14.63
2023-01-25T13:32:05.049Z,17.85
2023-01-25T13:34:44.313Z,14.52
2023-01-25T13:37:21.137Z,15.13
2023-01-25T13:39:50.290Z,15.48
2023-01-25T13:42:25.816Z,15.63
2023-01-25T13:45:01.906Z,17.10
2023-01-25T13:47:38.266Z,16.30
2023-01-25T13:50:27.650Z,17.95
2023-01-25T13:53:16.939Z,15.75
2023-01-25T13:55:50.024Z,18.38
2023-01-25T13:58:16.761Z,17.98
2023-01-25T14:01:04.258Z,17.90
2023-01-25T14:03:35.468Z,17.33
2023-01-25T14:06:04.342Z,19.10
2023-01-25T14:08:31.938Z,19.67
2023-01-25T14:10:59.102Z,18.80
2023-01-25T14:13:25.949Z,16.27
2023-01-25T14:15:55.614Z,17.13
2023-01-25T14:18:32.149Z,18.48
2023-01-25T14:21:18.346Z,16.13
2023-01-25T14:23:45.791Z,16.88
2023-01-25T14:26:34.224Z,17.38
2023-01-25T14:29:02.576Z,18.00
2023-01-25T14:31:35.941Z,15.85
2023-01-25T14:34:05.023Z,16.83
2023-01-25T14:36:34.750Z,22.65
2023-01-25T14:39:04.474Z,21.23
2023-01-25T14:41:59.264Z,24.20
2023-01-25T14:44:29.100Z,18.63
2023-01-25T14:47:24.802Z,18.83
2023-01-25T14:49:51.693Z,15.18
2023-01-25T14:52:20.587Z,16.02
2023-01-25T14:54:52.631Z,16.10
2023-01-25T14:57:34.571Z,15.13
2023-01-25T15:00:04.947Z,13.80
2023-01-25T15:02:39.265Z,14.40
2023-01-25T15:05:17.551Z,15.00
2023-01-25T15:07:46.232Z,14.85
2023-01-25T15:10:31.271Z,14.30
2023-01-25T15:13:14.186Z,15.13
2023-01-25T15:15:53.642Z,16.23
2023-01-25T15:18:51.514Z,14.70
2023-01-25T15:21:20.536Z,15.82
2023-01-25T15:23:49.051Z,15.93
2023-01-25T15:26:25.106Z,15.30
2023-01-25T15:28:54.298Z,16.02
2023-01-25T15:31:26.073Z,15.27
2023-01-25T15:33:53.339Z,14.13
2023-01-25T15:36:20.438Z,16.08
2023-01-25T15:38:47.459Z,15.18
2023-01-25T15:41:18.809Z,13.55
2023-01-25T15:43:47.559Z,13.90
2023-01-25T15:46:21.919Z,14.05
2023-01-25T15:48:50.080Z,14.18
2023-01-25T15:51:17.356Z,14.48
2023-01-25T15:53:44.521Z,16.08
2023-01-25T15:56:15.933Z,16.63
2023-01-25T15:58:46.042Z,19.55
2023-01-25T16:01:13.157Z,17.30
2023-01-25T16:03:41.569Z,15.25
2023-01-25T16:06:28.847Z,17.02
2023-01-25T16:08:55.838Z,15.98
2023-01-25T16:11:22.615Z,15.02
2023-01-25T16:13:49.420Z,14.68
2023-01-25T16:16:22.620Z,16.48
2023-01-25T16:18:49.805Z,16.63
2023-01-25T16:21:16.912Z,14.30
2023-01-25T16:23:43.734Z,16.13
2023-01-25T16:26:18.747Z,15.68
2023-01-25T16:28:45.541Z,14.05
2023-01-25T16:31:30.254Z,15.95
2023-01-25T16:33:58.443Z,16.27
2023-01-25T16:36:25.390Z,15.48
2023-01-25T16:38:52.444Z,15.15
2023-01-25T16:41:19.305Z,17.48
2023-01-25T16:43:48.606Z,15.65
2023-01-25T16:46:21.122Z,14.35
2023-01-25T16:48:49.209Z,15.25
2023-01-25T16:51:21.822Z,16.48
2023-01-25T16:53:50.188Z,16.60
2023-01-25T16:56:22.379Z,15.70
2023-01-25T17:01:18.815Z,18.25
2023-01-25T17:03:46.187Z,18.98
2023-01-25T17:06:21.351Z,17.25
2023-01-25T17:08:49.197Z,16.63
2023-01-25T17:11:18.748Z,18.50
2023-01-25T17:13:51.952Z,18.17
2023-01-25T17:16:20.042Z,17.83
2023-01-25T17:18:47.484Z,16.67
2023-01-25T17:21:16.880Z,16.00
2023-01-25T17:23:44.773Z,17.50
2023-01-25T17:26:14.175Z,15.32
2023-01-25T17:28:41.774Z,17.90
2023-01-25T17:31:20.698Z,15.85
2023-01-25T17:33:47.935Z,18.40
2023-01-25T17:36:15.343Z,17.58
2023-01-25T17:38:42.584Z,17.58
2023-01-25T17:41:12.319Z,16.52
2023-01-25T17:43:39.552Z,18.08
2023-01-25T17:46:14.735Z,17.40
2023-01-25T17:48:41.718Z,15.23
2023-01-25T17:51:08.568Z,16.40
2023-01-25T17:53:35.487Z,15.75
2023-01-25T17:56:04.760Z,14.18
2023-01-25T17:58:34.114Z,15.05
2023-01-25T18:01:13.023Z,16.15
2023-01-25T18:03:41.026Z,14.40
2023-01-25T18:06:09.568Z,15.93
2023-01-25T18:08:41.154Z,15.68
2023-01-25T18:11:10.432Z,16.17
2023-01-25T18:13:44.997Z,14.82
2023-01-25T18:16:12.379Z,16.73
2023-01-25T18:18:40.884Z,16.95
2023-01-25T18:21:24.318Z,18.95
2023-01-25T18:23:56.906Z,16.10
2023-01-25T18:26:33.484Z,15.30
2023-01-25T18:29:08.575Z,13.93
2023-01-25T18:31:35.931Z,14.10
2023-01-25T18:34:02.807Z,15.77
2023-01-25T18:36:29.550Z,14.02
2023-01-25T18:38:58.275Z,14.00
2023-01-25T18:41:24.979Z,15.45
2023-01-25T18:43:51.824Z,14.32
2023-01-25T18:46:18.564Z,14.82
2023-01-25T18:48:47.214Z,15.70
2023-01-25T18:51:17.405Z,14.20
2023-01-25T18:53:46.974Z,12.20
2023-01-25T18:56:19.103Z,14.77
2023-01-25T19:01:18.981Z,12.98
2023-01-25T19:03:47.387Z,12.93
2023-01-25T19:06:15.127Z,13.52
2023-01-25T19:08:44.154Z,12.75
2023-01-25T19:11:14.064Z,13.50
2023-01-25T19:13:41.981Z,13.32
2023-01-25T19:16:15.560Z,13.77
2023-01-25T19:18:48.256Z,13.35
2023-01-25T19:21:17.691Z,12.82
2023-01-25T19:23:44.725Z,13.80
2023-01-25T19:26:15.195Z,14.23
2023-01-25T19:28:42.826Z,14.18
2023-01-25T19:31:15.381Z,16.40
2023-01-25T19:33:42.568Z,16.95
2023-01-25T19:36:15.538Z,15.27
2023-01-25T19:38:43.344Z,15.65
2023-01-25T19:41:12.885Z,16.63
2023-01-25T19:43:43.735Z,15.35
2023-01-25T19:46:16.013Z,14.38
2023-01-25T19:51:16.239Z,14.15
2023-01-25T19:53:48.728Z,12.90
2023-01-25T19:56:17.780Z,13.93
2023-01-25T19:58:46.333Z,14.05
2023-01-25T20:01:15.250Z,14.40
2023-01-25T20:03:42.857Z,14.05
2023-01-25T20:06:11.156Z,13.27
2023-01-25T20:08:40.129Z,13.13
2023-01-25T20:11:14.198Z,13.48
2023-01-25T20:13:42.136Z,14.45
2023-01-25T20:16:10.401Z,14.40
2023-01-25T20:18:37.263Z,14.05
2023-01-25T20:21:11.164Z,14.55
2023-01-25T20:23:40.178Z,14.77
2023-01-25T20:26:08.667Z,15.45
2023-01-25T20:28:36.789Z,15.70
2023-01-25T20:31:04.999Z,15.13
2023-01-25T20:33:33.042Z,15.23
2023-01-25T20:36:01.557Z,15.50
2023-01-25T20:38:33.183Z,14.43
2023-01-25T20:41:05.492Z,15.02
2023-01-25T20:46:00.256Z,16.23
2023-01-25T20:48:28.638Z,14.52
2023-01-25T20:51:03.167Z,15.98
2023-01-25T20:53:30.471Z,16.85
2023-01-25T20:55:58.718Z,17.88
2023-01-25T20:58:25.887Z,14.27
2023-01-25T21:00:53.172Z,14.60
2023-01-25T21:03:20.208Z,14.45
2023-01-25T21:05:55.187Z,14.75
2023-01-25T21:08:22.998Z,14.93
2023-01-25T21:10:55.506Z,13.77
2023-01-25T21:13:22.755Z,14.45
2023-01-25T21:16:10.134Z,13.02
2023-01-25T21:18:42.370Z,13.57
2023-01-25T21:23:39.299Z,12.75
2023-01-25T21:26:07.681Z,12.70
2023-01-25T21:28:35.132Z,13.27
2023-01-25T21:31:35.268Z,13.68
2023-01-25T21:34:03.061Z,12.43
2023-01-25T21:36:30.021Z,11.85
2023-01-25T21:38:58.107Z,13.50
2023-01-25T21:41:27.193Z,14.13
2023-01-25T21:44:14.800Z,14.00
2023-01-25T21:46:43.535Z,14.63
2023-01-25T21:49:33.031Z,14.55
2023-01-25T21:52:02.033Z,13.10
2023-01-25T21:54:34.794Z,14.25
2023-01-25T21:57:04.517Z,12.15
2023-01-25T21:59:33.508Z,12.77
2023-01-25T22:02:00.239Z,13.27
2023-01-25T22:04:27.269Z,13.55
2023-01-25T22:06:54.741Z,13.30
2023-01-25T22:09:22.492Z,13.38
2023-01-25T22:11:50.728Z,13.13
2023-01-25T22:14:27.379Z,12.27
2023-01-25T22:16:58.021Z,14.15
2023-01-25T22:19:24.861Z,12.88
2023-01-25T22:21:54.599Z,12.60
2023-01-25T22:24:22.120Z,11.98
2023-01-25T22:27:30.580Z,14.30
2023-01-25T22:29:57.395Z,13.73
2023-01-25T22:32:24.104Z,12.93
2023-01-25T22:34:50.857Z,13.00
2023-01-25T22:37:17.608Z,12.73
2023-01-25T22:39:45.535Z,12.68
2023-01-25T22:42:12.272Z,12.15
2023-01-25T22:44:39.055Z,10.82
2023-01-25T22:47:06.143Z,12.70
2023-01-25T22:49:35.705Z,12.10
2023-01-25T22:52:08.337Z,11.75
2023-01-25T22:54:35.138Z,12.30
2023-01-25T22:57:04.131Z,11.60
2023-01-25T22:59:33.858Z,11.73
2023-01-25T23:02:03.062Z,11.68
2023-01-25T23:04:30.536Z,10.38
2023-01-25T23:07:02.849Z,12.88
2023-01-25T23:09:31.966Z,12.05
2023-01-25T23:12:01.655Z,11.82
2023-01-25T23:14:49.969Z,10.77
2023-01-25T23:17:38.156Z,10.65
2023-01-25T23:20:06.928Z,11.85
2023-01-25T23:22:33.690Z,12.90
2023-01-25T23:25:04.084Z,13.52
2023-01-25T23:27:30.829Z,12.02
2023-01-25T23:29:57.627Z,13.48
2023-01-25T23:32:24.386Z,13.38
2023-01-25T23:34:54.322Z,12.05
2023-01-25T23:37:22.117Z,13.10
2023-01-25T23:39:52.382Z,11.57
2023-01-25T23:42:19.350Z,14.10
2023-01-25T23:44:49.045Z,12.57
2023-01-25T23:47:16.670Z,10.70
2023-01-25T23:49:43.427Z,12.63
2023-01-25T23:52:10.186Z,12.30
2023-01-25T23:54:39.759Z,11.75
2023-01-25T23:57:06.462Z,12.13
2023-01-25T23:59:33.986Z,11.25
